sensor_id;sensor_type;location;lat;lon;timestamp;temperature;humidity
16064;DHT22;8136;53.172;8.256;2022-08-03T00:01:34;21.70;99.90
16064;DHT22;8136;53.172;8.256;2022-08-03T00:04:00;21.70;99.90
16064;DHT22;8136;53.172;8.256;2022-08-03T00:06:27;21.70;99.90
16064;DHT22;8136;53.172;8.256;2022-08-03T00:08:54;21.70;99.90
16064;DHT22;8136;53.172;8.256;2022-08-03T00:11:22;21.70;99.90
16064;DHT22;8136;53.172;8.256;2022-08-03T00:13:49;21.60;99.90
16064;DHT22;8136;53.172;8.256;2022-08-03T00:16:16;21.60;99.90
16064;DHT22;8136;53.172;8.256;2022-08-03T00:18:43;21.50;99.90
16064;DHT22;8136;53.172;8.256;2022-08-03T00:21:10;21.50;99.90
16064;DHT22;8136;53.172;8.256;2022-08-03T00:23:37;21.40;99.90
16064;DHT22;8136;53.172;8.256;2022-08-03T00:26:04;21.40;99.90
16064;DHT22;8136;53.172;8.256;2022-08-03T00:28:32;21.30;99.90
16064;DHT22;8136;53.172;8.256;2022-08-03T00:30:59;21.20;99.90
16064;DHT22;8136;53.172;8.256;2022-08-03T00:33:26;21.30;99.90
16064;DHT22;8136;53.172;8.256;2022-08-03T00:35:53;21.20;99.90
16064;DHT22;8136;53.172;8.256;2022-08-03T00:38:20;21.20;99.90
16064;DHT22;8136;53.172;8.256;2022-08-03T00:40:47;21.10;99.90
16064;DHT22;8136;53.172;8.256;2022-08-03T00:43:14;21.00;99.90
16064;DHT22;8136;53.172;8.256;2022-08-03T00:45:42;21.00;99.90
16064;DHT22;8136;53.172;8.256;2022-08-03T00:48:11;20.90;99.90
16064;DHT22;8136;53.172;8.256;2022-08-03T00:50:39;20.90;99.90
16064;DHT22;8136;53.172;8.256;2022-08-03T00:53:09;20.90;99.90
16064;DHT22;8136;53.172;8.256;2022-08-03T00:55:38;20.80;99.90
16064;DHT22;8136;53.172;8.256;2022-08-03T00:58:06;20.70;99.90
16064;DHT22;8136;53.172;8.256;2022-08-03T01:00:34;20.70;99.90
16064;DHT22;8136;53.172;8.256;2022-08-03T01:03:05;20.60;99.90
16064;DHT22;8136;53.172;8.256;2022-08-03T01:05:36;20.60;99.90
16064;DHT22;8136;53.172;8.256;2022-08-03T01:08:09;20.50;99.90
16064;DHT22;8136;53.172;8.256;2022-08-03T01:10:44;20.40;99.90
16064;DHT22;8136;53.172;8.256;2022-08-03T01:13:24;20.40;99.90
16064;DHT22;8136;53.172;8.256;2022-08-03T01:16:00;20.30;99.90
16064;DHT22;8136;53.172;8.256;2022-08-03T01:18:35;20.30;99.90
16064;DHT22;8136;53.172;8.256;2022-08-03T01:21:08;20.30;99.90
16064;DHT22;8136;53.172;8.256;2022-08-03T01:23:53;20.30;99.90
16064;DHT22;8136;53.172;8.256;2022-08-03T01:26:36;20.30;99.90
16064;DHT22;8136;53.172;8.256;2022-08-03T01:29:39;20.30;99.90
16064;DHT22;8136;53.172;8.256;2022-08-03T01:32:15;20.20;99.90
16064;DHT22;8136;53.172;8.256;2022-08-03T01:34:47;20.20;99.90
16064;DHT22;8136;53.172;8.256;2022-08-03T01:37:17;20.10;99.90
16064;DHT22;8136;53.172;8.256;2022-08-03T01:39:45;20.10;99.90
16064;DHT22;8136;53.172;8.256;2022-08-03T01:42:13;20.10;99.90
16064;DHT22;8136;53.172;8.256;2022-08-03T01:44:43;20.10;99.90
16064;DHT22;8136;53.172;8.256;2022-08-03T01:47:12;20.00;99.90
16064;DHT22;8136;53.172;8.256;2022-08-03T01:49:42;20.00;99.90
16064;DHT22;8136;53.172;8.256;2022-08-03T01:52:11;20.00;99.90
16064;DHT22;8136;53.172;8.256;2022-08-03T01:54:42;20.00;99.90
16064;DHT22;8136;53.172;8.256;2022-08-03T01:57:09;19.90;99.90
16064;DHT22;8136;53.172;8.256;2022-08-03T01:59:37;19.90;99.90
16064;DHT22;8136;53.172;8.256;2022-08-03T02:02:07;19.80;99.90
16064;DHT22;8136;53.172;8.256;2022-08-03T02:04:37;19.80;99.90
16064;DHT22;8136;53.172;8.256;2022-08-03T02:07:05;19.70;99.90
16064;DHT22;8136;53.172;8.256;2022-08-03T02:09:34;19.70;99.90
16064;DHT22;8136;53.172;8.256;2022-08-03T02:12:05;19.70;99.90
16064;DHT22;8136;53.172;8.256;2022-08-03T02:14:33;19.70;99.90
16064;DHT22;8136;53.172;8.256;2022-08-03T02:17:00;19.80;99.90
16064;DHT22;8136;53.172;8.256;2022-08-03T02:19:29;19.80;99.90
16064;DHT22;8136;53.172;8.256;2022-08-03T02:21:58;19.80;99.90
16064;DHT22;8136;53.172;8.256;2022-08-03T02:24:25;19.80;99.90
16064;DHT22;8136;53.172;8.256;2022-08-03T02:26:54;19.80;99.90
16064;DHT22;8136;53.172;8.256;2022-08-03T02:29:24;19.80;99.90
16064;DHT22;8136;53.172;8.256;2022-08-03T02:31:54;19.90;99.90
16064;DHT22;8136;53.172;8.256;2022-08-03T02:34:26;19.90;99.90
16064;DHT22;8136;53.172;8.256;2022-08-03T02:36:57;19.90;99.90
16064;DHT22;8136;53.172;8.256;2022-08-03T02:39:27;19.80;99.90
16064;DHT22;8136;53.172;8.256;2022-08-03T02:41:58;19.80;99.90
16064;DHT22;8136;53.172;8.256;2022-08-03T02:44:29;19.80;99.90
16064;DHT22;8136;53.172;8.256;2022-08-03T02:47:01;19.80;99.90
16064;DHT22;8136;53.172;8.256;2022-08-03T02:49:29;19.70;99.90
16064;DHT22;8136;53.172;8.256;2022-08-03T02:52:00;19.70;99.90
16064;DHT22;8136;53.172;8.256;2022-08-03T02:54:29;19.70;99.90
16064;DHT22;8136;53.172;8.256;2022-08-03T02:56:58;19.60;99.90
16064;DHT22;8136;53.172;8.256;2022-08-03T02:59:27;19.60;99.90
16064;DHT22;8136;53.172;8.256;2022-08-03T03:01:56;19.60;99.90
16064;DHT22;8136;53.172;8.256;2022-08-03T03:04:25;19.60;99.90
16064;DHT22;8136;53.172;8.256;2022-08-03T03:06:53;19.70;99.90
16064;DHT22;8136;53.172;8.256;2022-08-03T03:09:22;19.60;99.90
16064;DHT22;8136;53.172;8.256;2022-08-03T03:11:50;19.60;99.90
16064;DHT22;8136;53.172;8.256;2022-08-03T03:14:19;19.60;99.90
16064;DHT22;8136;53.172;8.256;2022-08-03T03:16:47;19.60;99.90
16064;DHT22;8136;53.172;8.256;2022-08-03T03:19:15;19.60;99.90
16064;DHT22;8136;53.172;8.256;2022-08-03T03:21:43;19.50;99.90
16064;DHT22;8136;53.172;8.256;2022-08-03T03:24:11;19.50;99.90
16064;DHT22;8136;53.172;8.256;2022-08-03T03:26:42;19.50;99.90
16064;DHT22;8136;53.172;8.256;2022-08-03T03:29:10;19.60;99.90
16064;DHT22;8136;53.172;8.256;2022-08-03T03:31:37;19.50;99.90
16064;DHT22;8136;53.172;8.256;2022-08-03T03:34:04;19.50;99.90
16064;DHT22;8136;53.172;8.256;2022-08-03T03:36:32;19.40;99.90
16064;DHT22;8136;53.172;8.256;2022-08-03T03:38:59;19.40;99.90
16064;DHT22;8136;53.172;8.256;2022-08-03T03:41:25;19.40;99.90
16064;DHT22;8136;53.172;8.256;2022-08-03T03:43:54;19.40;99.90
16064;DHT22;8136;53.172;8.256;2022-08-03T03:46:21;19.50;99.90
16064;DHT22;8136;53.172;8.256;2022-08-03T03:48:48;19.40;99.90
16064;DHT22;8136;53.172;8.256;2022-08-03T03:51:15;19.40;99.90
16064;DHT22;8136;53.172;8.256;2022-08-03T03:53:54;19.40;99.90
16064;DHT22;8136;53.172;8.256;2022-08-03T03:56:21;19.40;99.90
16064;DHT22;8136;53.172;8.256;2022-08-03T03:58:48;19.40;99.90
16064;DHT22;8136;53.172;8.256;2022-08-03T04:01:16;19.40;99.90
16064;DHT22;8136;53.172;8.256;2022-08-03T04:03:43;19.40;99.90
16064;DHT22;8136;53.172;8.256;2022-08-03T04:06:11;19.40;99.90
16064;DHT22;8136;53.172;8.256;2022-08-03T04:08:55;19.40;99.90
16064;DHT22;8136;53.172;8.256;2022-08-03T04:11:44;19.40;99.90
16064;DHT22;8136;53.172;8.256;2022-08-03T04:14:17;19.30;99.90
16064;DHT22;8136;53.172;8.256;2022-08-03T04:16:49;19.30;99.90
16064;DHT22;8136;53.172;8.256;2022-08-03T04:19:21;19.40;99.90
16064;DHT22;8136;53.172;8.256;2022-08-03T04:21:53;19.40;99.90
16064;DHT22;8136;53.172;8.256;2022-08-03T04:24:22;19.40;99.90
16064;DHT22;8136;53.172;8.256;2022-08-03T04:26:49;19.30;99.90
16064;DHT22;8136;53.172;8.256;2022-08-03T04:29:18;19.40;99.90
16064;DHT22;8136;53.172;8.256;2022-08-03T04:31:47;19.40;99.90
16064;DHT22;8136;53.172;8.256;2022-08-03T04:34:15;19.40;99.90
16064;DHT22;8136;53.172;8.256;2022-08-03T04:36:47;19.40;99.90
16064;DHT22;8136;53.172;8.256;2022-08-03T04:39:18;19.50;99.90
16064;DHT22;8136;53.172;8.256;2022-08-03T04:41:48;19.40;99.90
16064;DHT22;8136;53.172;8.256;2022-08-03T04:44:18;19.50;99.90
16064;DHT22;8136;53.172;8.256;2022-08-03T04:46:52;19.50;99.90
16064;DHT22;8136;53.172;8.256;2022-08-03T04:49:20;19.60;99.90
16064;DHT22;8136;53.172;8.256;2022-08-03T04:51:48;19.60;99.90
16064;DHT22;8136;53.172;8.256;2022-08-03T04:54:16;19.60;99.90
16064;DHT22;8136;53.172;8.256;2022-08-03T04:56:43;19.70;99.90
16064;DHT22;8136;53.172;8.256;2022-08-03T04:59:10;19.70;99.90
16064;DHT22;8136;53.172;8.256;2022-08-03T05:01:38;19.80;99.90
16064;DHT22;8136;53.172;8.256;2022-08-03T05:04:06;19.70;99.90
16064;DHT22;8136;53.172;8.256;2022-08-03T05:06:33;19.80;99.90
16064;DHT22;8136;53.172;8.256;2022-08-03T05:09:00;19.90;99.90
16064;DHT22;8136;53.172;8.256;2022-08-03T05:11:27;19.80;99.90
16064;DHT22;8136;53.172;8.256;2022-08-03T05:13:54;19.90;99.90
16064;DHT22;8136;53.172;8.256;2022-08-03T05:16:21;20.00;99.90
16064;DHT22;8136;53.172;8.256;2022-08-03T05:18:50;20.00;99.90
16064;DHT22;8136;53.172;8.256;2022-08-03T05:21:18;20.10;99.90
16064;DHT22;8136;53.172;8.256;2022-08-03T05:23:45;20.20;99.90
16064;DHT22;8136;53.172;8.256;2022-08-03T05:26:11;20.30;99.90
16064;DHT22;8136;53.172;8.256;2022-08-03T05:28:39;20.40;99.90
16064;DHT22;8136;53.172;8.256;2022-08-03T05:31:05;20.40;99.90
16064;DHT22;8136;53.172;8.256;2022-08-03T05:33:32;20.50;99.90
16064;DHT22;8136;53.172;8.256;2022-08-03T05:35:59;20.50;99.90
16064;DHT22;8136;53.172;8.256;2022-08-03T05:38:27;20.60;99.90
16064;DHT22;8136;53.172;8.256;2022-08-03T05:40:54;20.70;99.90
16064;DHT22;8136;53.172;8.256;2022-08-03T05:43:21;20.80;99.90
16064;DHT22;8136;53.172;8.256;2022-08-03T05:45:48;20.80;99.90
16064;DHT22;8136;53.172;8.256;2022-08-03T05:48:15;20.80;99.90
16064;DHT22;8136;53.172;8.256;2022-08-03T05:50:42;21.00;99.90
16064;DHT22;8136;53.172;8.256;2022-08-03T05:53:08;21.00;99.90
16064;DHT22;8136;53.172;8.256;2022-08-03T05:55:37;21.10;99.90
16064;DHT22;8136;53.172;8.256;2022-08-03T05:58:11;21.10;99.90
16064;DHT22;8136;53.172;8.256;2022-08-03T06:00:40;21.20;99.90
16064;DHT22;8136;53.172;8.256;2022-08-03T06:03:09;21.30;99.90
16064;DHT22;8136;53.172;8.256;2022-08-03T06:05:35;21.30;99.90
16064;DHT22;8136;53.172;8.256;2022-08-03T06:08:08;21.40;99.90
16064;DHT22;8136;53.172;8.256;2022-08-03T06:10:37;21.50;99.90
16064;DHT22;8136;53.172;8.256;2022-08-03T06:13:04;21.60;99.90
16064;DHT22;8136;53.172;8.256;2022-08-03T06:15:31;21.70;99.90
16064;DHT22;8136;53.172;8.256;2022-08-03T06:18:01;21.80;99.90
16064;DHT22;8136;53.172;8.256;2022-08-03T06:20:29;21.90;99.90
16064;DHT22;8136;53.172;8.256;2022-08-03T06:22:55;21.90;99.90
16064;DHT22;8136;53.172;8.256;2022-08-03T06:25:31;22.00;99.90
16064;DHT22;8136;53.172;8.256;2022-08-03T06:27:59;22.10;99.90
16064;DHT22;8136;53.172;8.256;2022-08-03T06:30:29;22.10;99.90
16064;DHT22;8136;53.172;8.256;2022-08-03T06:32:56;22.20;99.90
16064;DHT22;8136;53.172;8.256;2022-08-03T06:35:23;22.20;99.90
16064;DHT22;8136;53.172;8.256;2022-08-03T06:37:55;22.30;99.90
16064;DHT22;8136;53.172;8.256;2022-08-03T06:40:23;22.40;99.90
16064;DHT22;8136;53.172;8.256;2022-08-03T06:42:54;22.40;99.90
16064;DHT22;8136;53.172;8.256;2022-08-03T06:45:22;22.40;99.90
16064;DHT22;8136;53.172;8.256;2022-08-03T06:47:59;22.40;99.90
16064;DHT22;8136;53.172;8.256;2022-08-03T06:50:27;22.40;99.90
16064;DHT22;8136;53.172;8.256;2022-08-03T06:52:55;22.40;99.90
16064;DHT22;8136;53.172;8.256;2022-08-03T06:55:25;22.40;99.90
16064;DHT22;8136;53.172;8.256;2022-08-03T06:57:52;22.50;99.90
16064;DHT22;8136;53.172;8.256;2022-08-03T07:00:19;22.50;99.90
16064;DHT22;8136;53.172;8.256;2022-08-03T07:02:47;22.60;99.90
16064;DHT22;8136;53.172;8.256;2022-08-03T07:05:16;22.60;99.90
16064;DHT22;8136;53.172;8.256;2022-08-03T07:07:43;22.60;99.90
16064;DHT22;8136;53.172;8.256;2022-08-03T07:10:12;22.70;99.90
16064;DHT22;8136;53.172;8.256;2022-08-03T07:12:42;22.80;99.90
16064;DHT22;8136;53.172;8.256;2022-08-03T07:15:12;22.80;99.90
16064;DHT22;8136;53.172;8.256;2022-08-03T07:17:42;22.80;99.90
16064;DHT22;8136;53.172;8.256;2022-08-03T07:20:11;22.90;99.90
16064;DHT22;8136;53.172;8.256;2022-08-03T07:22:43;22.90;99.90
16064;DHT22;8136;53.172;8.256;2022-08-03T07:25:10;22.90;99.90
16064;DHT22;8136;53.172;8.256;2022-08-03T07:27:37;23.00;99.90
16064;DHT22;8136;53.172;8.256;2022-08-03T07:30:06;23.20;99.90
16064;DHT22;8136;53.172;8.256;2022-08-03T07:32:34;23.20;99.90
16064;DHT22;8136;53.172;8.256;2022-08-03T07:35:01;23.30;99.90
16064;DHT22;8136;53.172;8.256;2022-08-03T07:37:32;23.40;99.90
16064;DHT22;8136;53.172;8.256;2022-08-03T07:40:00;23.40;99.90
16064;DHT22;8136;53.172;8.256;2022-08-03T07:42:28;23.50;99.90
16064;DHT22;8136;53.172;8.256;2022-08-03T07:44:59;23.60;99.90
16064;DHT22;8136;53.172;8.256;2022-08-03T07:47:28;23.60;99.90
16064;DHT22;8136;53.172;8.256;2022-08-03T07:49:59;23.70;99.90
16064;DHT22;8136;53.172;8.256;2022-08-03T07:52:26;23.80;99.90
16064;DHT22;8136;53.172;8.256;2022-08-03T07:55:15;23.90;99.90
16064;DHT22;8136;53.172;8.256;2022-08-03T07:57:42;23.90;99.90
16064;DHT22;8136;53.172;8.256;2022-08-03T08:00:14;23.90;99.90
16064;DHT22;8136;53.172;8.256;2022-08-03T08:02:41;24.00;99.90
16064;DHT22;8136;53.172;8.256;2022-08-03T08:05:08;24.10;99.90
16064;DHT22;8136;53.172;8.256;2022-08-03T08:07:37;24.20;99.90
16064;DHT22;8136;53.172;8.256;2022-08-03T08:10:05;24.20;99.90
16064;DHT22;8136;53.172;8.256;2022-08-03T08:12:34;24.20;99.90
16064;DHT22;8136;53.172;8.256;2022-08-03T08:15:01;24.30;99.90
16064;DHT22;8136;53.172;8.256;2022-08-03T08:17:41;24.40;99.90
16064;DHT22;8136;53.172;8.256;2022-08-03T08:20:16;24.50;99.90
16064;DHT22;8136;53.172;8.256;2022-08-03T08:22:43;24.50;99.90
16064;DHT22;8136;53.172;8.256;2022-08-03T08:25:10;24.60;99.90
16064;DHT22;8136;53.172;8.256;2022-08-03T08:27:46;24.50;99.90
16064;DHT22;8136;53.172;8.256;2022-08-03T08:30:16;24.60;99.90
16064;DHT22;8136;53.172;8.256;2022-08-03T08:32:43;24.70;99.90
16064;DHT22;8136;53.172;8.256;2022-08-03T08:35:13;24.80;99.90
16064;DHT22;8136;53.172;8.256;2022-08-03T08:37:43;24.90;99.90
16064;DHT22;8136;53.172;8.256;2022-08-03T08:40:20;24.90;99.90
16064;DHT22;8136;53.172;8.256;2022-08-03T08:42:56;24.90;99.90
16064;DHT22;8136;53.172;8.256;2022-08-03T08:45:23;25.00;99.90
16064;DHT22;8136;53.172;8.256;2022-08-03T08:47:50;25.00;99.90
16064;DHT22;8136;53.172;8.256;2022-08-03T08:50:20;25.00;99.90
16064;DHT22;8136;53.172;8.256;2022-08-03T08:52:49;25.00;99.90
16064;DHT22;8136;53.172;8.256;2022-08-03T08:55:20;25.10;99.90
16064;DHT22;8136;53.172;8.256;2022-08-03T08:57:52;25.20;99.90
16064;DHT22;8136;53.172;8.256;2022-08-03T09:00:22;25.30;99.90
16064;DHT22;8136;53.172;8.256;2022-08-03T09:02:56;25.40;99.90
16064;DHT22;8136;53.172;8.256;2022-08-03T09:05:24;25.40;99.90
16064;DHT22;8136;53.172;8.256;2022-08-03T09:07:51;25.40;99.90
16064;DHT22;8136;53.172;8.256;2022-08-03T09:10:18;25.50;99.90
16064;DHT22;8136;53.172;8.256;2022-08-03T09:12:48;25.50;99.90
16064;DHT22;8136;53.172;8.256;2022-08-03T09:15:19;25.50;99.90
16064;DHT22;8136;53.172;8.256;2022-08-03T09:17:46;25.60;99.90
16064;DHT22;8136;53.172;8.256;2022-08-03T09:20:20;25.70;99.90
16064;DHT22;8136;53.172;8.256;2022-08-03T09:22:59;25.80;99.90
16064;DHT22;8136;53.172;8.256;2022-08-03T09:25:27;25.90;99.90
16064;DHT22;8136;53.172;8.256;2022-08-03T09:28:06;25.90;99.90
16064;DHT22;8136;53.172;8.256;2022-08-03T09:30:35;26.00;99.90
16064;DHT22;8136;53.172;8.256;2022-08-03T09:33:04;26.10;99.90
16064;DHT22;8136;53.172;8.256;2022-08-03T09:35:31;26.30;99.90
16064;DHT22;8136;53.172;8.256;2022-08-03T09:38:09;26.30;99.90
16064;DHT22;8136;53.172;8.256;2022-08-03T09:40:36;26.40;99.90
16064;DHT22;8136;53.172;8.256;2022-08-03T09:43:04;26.40;99.90
16064;DHT22;8136;53.172;8.256;2022-08-03T09:45:33;26.60;99.90
16064;DHT22;8136;53.172;8.256;2022-08-03T09:48:22;26.60;99.90
16064;DHT22;8136;53.172;8.256;2022-08-03T09:50:50;26.70;99.90
16064;DHT22;8136;53.172;8.256;2022-08-03T09:53:21;26.70;99.90
16064;DHT22;8136;53.172;8.256;2022-08-03T09:55:53;26.80;99.90
16064;DHT22;8136;53.172;8.256;2022-08-03T09:58:21;26.90;99.90
16064;DHT22;8136;53.172;8.256;2022-08-03T10:01:03;27.00;99.90
16064;DHT22;8136;53.172;8.256;2022-08-03T10:03:34;27.00;99.90
16064;DHT22;8136;53.172;8.256;2022-08-03T10:06:14;27.00;99.90
16064;DHT22;8136;53.172;8.256;2022-08-03T10:08:41;27.00;99.90
16064;DHT22;8136;53.172;8.256;2022-08-03T10:11:07;27.10;99.90
16064;DHT22;8136;53.172;8.256;2022-08-03T10:13:35;27.20;99.90
16064;DHT22;8136;53.172;8.256;2022-08-03T10:16:05;27.30;99.90
16064;DHT22;8136;53.172;8.256;2022-08-03T10:18:33;27.30;99.90
16064;DHT22;8136;53.172;8.256;2022-08-03T10:21:03;27.40;99.90
16064;DHT22;8136;53.172;8.256;2022-08-03T10:23:33;27.40;99.90
16064;DHT22;8136;53.172;8.256;2022-08-03T10:26:03;27.40;99.90
16064;DHT22;8136;53.172;8.256;2022-08-03T10:28:34;27.50;99.90
16064;DHT22;8136;53.172;8.256;2022-08-03T10:31:02;27.60;99.90
16064;DHT22;8136;53.172;8.256;2022-08-03T10:33:36;27.60;99.90
16064;DHT22;8136;53.172;8.256;2022-08-03T10:36:08;27.80;99.90
16064;DHT22;8136;53.172;8.256;2022-08-03T10:38:43;27.80;99.90
16064;DHT22;8136;53.172;8.256;2022-08-03T10:41:14;27.90;99.90
16064;DHT22;8136;53.172;8.256;2022-08-03T10:43:46;28.00;99.90
16064;DHT22;8136;53.172;8.256;2022-08-03T10:46:24;28.10;99.90
16064;DHT22;8136;53.172;8.256;2022-08-03T10:52:22;28.20;99.90
16064;DHT22;8136;53.172;8.256;2022-08-03T10:54:49;28.20;99.90
16064;DHT22;8136;53.172;8.256;2022-08-03T10:57:49;28.20;99.90
16064;DHT22;8136;53.172;8.256;2022-08-03T11:00:22;28.20;99.90
16064;DHT22;8136;53.172;8.256;2022-08-03T11:03:05;28.30;99.90
16064;DHT22;8136;53.172;8.256;2022-08-03T11:05:36;28.40;99.90
16064;DHT22;8136;53.172;8.256;2022-08-03T11:08:33;28.50;99.90
16064;DHT22;8136;53.172;8.256;2022-08-03T11:11:02;28.60;99.90
16064;DHT22;8136;53.172;8.256;2022-08-03T11:14:00;28.70;99.90
16064;DHT22;8136;53.172;8.256;2022-08-03T11:16:38;28.70;99.90
16064;DHT22;8136;53.172;8.256;2022-08-03T11:19:07;28.80;99.90
16064;DHT22;8136;53.172;8.256;2022-08-03T11:21:55;28.90;99.90
16064;DHT22;8136;53.172;8.256;2022-08-03T11:24:59;29.00;99.90
16064;DHT22;8136;53.172;8.256;2022-08-03T11:27:34;29.00;99.90
16064;DHT22;8136;53.172;8.256;2022-08-03T11:30:05;29.10;99.90
16064;DHT22;8136;53.172;8.256;2022-08-03T11:32:53;29.20;99.90
16064;DHT22;8136;53.172;8.256;2022-08-03T11:35:22;29.30;99.90
16064;DHT22;8136;53.172;8.256;2022-08-03T11:38:06;29.40;99.90
16064;DHT22;8136;53.172;8.256;2022-08-03T11:40:38;29.50;99.90
16064;DHT22;8136;53.172;8.256;2022-08-03T11:43:10;29.70;99.90
16064;DHT22;8136;53.172;8.256;2022-08-03T11:46:08;29.80;99.90
16064;DHT22;8136;53.172;8.256;2022-08-03T11:48:38;29.80;99.90
16064;DHT22;8136;53.172;8.256;2022-08-03T11:51:18;29.80;99.80
16064;DHT22;8136;53.172;8.256;2022-08-03T11:53:50;29.90;99.90
16064;DHT22;8136;53.172;8.256;2022-08-03T11:56:22;29.90;99.90
16064;DHT22;8136;53.172;8.256;2022-08-03T11:58:53;29.90;99.90
16064;DHT22;8136;53.172;8.256;2022-08-03T12:01:21;29.90;99.50
16064;DHT22;8136;53.172;8.256;2022-08-03T12:03:49;29.80;99.60
16064;DHT22;8136;53.172;8.256;2022-08-03T12:06:17;29.80;99.90
16064;DHT22;8136;53.172;8.256;2022-08-03T12:08:45;30.00;99.90
16064;DHT22;8136;53.172;8.256;2022-08-03T12:11:14;30.10;99.90
16064;DHT22;8136;53.172;8.256;2022-08-03T12:13:43;30.20;99.90
16064;DHT22;8136;53.172;8.256;2022-08-03T12:16:16;30.30;99.70
16064;DHT22;8136;53.172;8.256;2022-08-03T12:18:44;30.40;99.90
16064;DHT22;8136;53.172;8.256;2022-08-03T12:21:11;30.40;99.90
16064;DHT22;8136;53.172;8.256;2022-08-03T12:23:38;30.40;99.40
16064;DHT22;8136;53.172;8.256;2022-08-03T12:26:08;30.40;99.90
16064;DHT22;8136;53.172;8.256;2022-08-03T12:28:46;30.40;99.60
16064;DHT22;8136;53.172;8.256;2022-08-03T12:31:13;30.50;99.90
16064;DHT22;8136;53.172;8.256;2022-08-03T12:33:58;30.50;99.40
16064;DHT22;8136;53.172;8.256;2022-08-03T12:36:26;30.60;98.40
16064;DHT22;8136;53.172;8.256;2022-08-03T12:39:06;30.60;99.10
16064;DHT22;8136;53.172;8.256;2022-08-03T12:41:34;30.60;99.90
16064;DHT22;8136;53.172;8.256;2022-08-03T12:44:05;30.70;99.80
16064;DHT22;8136;53.172;8.256;2022-08-03T12:46:56;30.90;99.30
16064;DHT22;8136;53.172;8.256;2022-08-03T12:49:23;31.00;99.30
16064;DHT22;8136;53.172;8.256;2022-08-03T12:52:09;30.90;98.80
16064;DHT22;8136;53.172;8.256;2022-08-03T12:54:53;30.80;99.00
16064;DHT22;8136;53.172;8.256;2022-08-03T12:57:21;30.70;98.20
16064;DHT22;8136;53.172;8.256;2022-08-03T12:59:58;30.70;97.60
16064;DHT22;8136;53.172;8.256;2022-08-03T13:02:38;30.70;98.10
16064;DHT22;8136;53.172;8.256;2022-08-03T13:05:09;30.80;98.90
16064;DHT22;8136;53.172;8.256;2022-08-03T13:07:39;30.80;97.40
16064;DHT22;8136;53.172;8.256;2022-08-03T13:10:07;30.70;97.00
16064;DHT22;8136;53.172;8.256;2022-08-03T13:12:45;30.70;97.30
16064;DHT22;8136;53.172;8.256;2022-08-03T13:15:14;30.70;97.00
16064;DHT22;8136;53.172;8.256;2022-08-03T13:17:41;30.60;97.50
16064;DHT22;8136;53.172;8.256;2022-08-03T13:20:09;30.60;98.20
16064;DHT22;8136;53.172;8.256;2022-08-03T13:22:36;30.80;97.70
16064;DHT22;8136;53.172;8.256;2022-08-03T13:25:10;30.90;98.00
16064;DHT22;8136;53.172;8.256;2022-08-03T13:27:40;31.00;99.20
16064;DHT22;8136;53.172;8.256;2022-08-03T13:30:08;31.10;97.20
16064;DHT22;8136;53.172;8.256;2022-08-03T13:32:37;31.30;97.40
16064;DHT22;8136;53.172;8.256;2022-08-03T13:35:10;31.30;96.40
16064;DHT22;8136;53.172;8.256;2022-08-03T13:37:47;31.40;95.60
16064;DHT22;8136;53.172;8.256;2022-08-03T13:40:14;31.50;95.90
16064;DHT22;8136;53.172;8.256;2022-08-03T13:42:43;31.60;95.70
16064;DHT22;8136;53.172;8.256;2022-08-03T13:45:14;31.90;95.20
16064;DHT22;8136;53.172;8.256;2022-08-03T13:47:44;32.30;95.20
16064;DHT22;8136;53.172;8.256;2022-08-03T13:50:11;33.00;95.00
16064;DHT22;8136;53.172;8.256;2022-08-03T13:52:40;33.50;94.30
16064;DHT22;8136;53.172;8.256;2022-08-03T13:55:16;34.10;93.20
16064;DHT22;8136;53.172;8.256;2022-08-03T13:57:49;34.30;91.80
16064;DHT22;8136;53.172;8.256;2022-08-03T14:00:20;34.50;92.70
16064;DHT22;8136;53.172;8.256;2022-08-03T14:02:55;34.60;92.40
16064;DHT22;8136;53.172;8.256;2022-08-03T14:05:22;35.20;91.30
16064;DHT22;8136;53.172;8.256;2022-08-03T14:07:52;36.20;91.40
16064;DHT22;8136;53.172;8.256;2022-08-03T14:10:21;37.10;90.30
16064;DHT22;8136;53.172;8.256;2022-08-03T14:12:48;38.00;87.80
16064;DHT22;8136;53.172;8.256;2022-08-03T14:15:15;38.90;86.30
16064;DHT22;8136;53.172;8.256;2022-08-03T14:17:42;39.10;83.10
16064;DHT22;8136;53.172;8.256;2022-08-03T14:20:13;39.50;82.90
16064;DHT22;8136;53.172;8.256;2022-08-03T14:22:42;40.00;83.50
16064;DHT22;8136;53.172;8.256;2022-08-03T14:25:09;40.20;78.80
16064;DHT22;8136;53.172;8.256;2022-08-03T14:27:36;40.10;77.20
16064;DHT22;8136;53.172;8.256;2022-08-03T14:30:03;39.60;75.60
16064;DHT22;8136;53.172;8.256;2022-08-03T14:32:33;39.50;76.30
16064;DHT22;8136;53.172;8.256;2022-08-03T14:35:04;39.70;77.90
16064;DHT22;8136;53.172;8.256;2022-08-03T14:37:35;40.30;74.70
16064;DHT22;8136;53.172;8.256;2022-08-03T14:40:04;39.90;74.60
16064;DHT22;8136;53.172;8.256;2022-08-03T14:42:35;39.30;76.30
16064;DHT22;8136;53.172;8.256;2022-08-03T14:45:02;38.40;75.00
16064;DHT22;8136;53.172;8.256;2022-08-03T14:47:28;37.60;77.30
16064;DHT22;8136;53.172;8.256;2022-08-03T14:50:01;37.40;77.80
16064;DHT22;8136;53.172;8.256;2022-08-03T14:52:30;37.90;76.80
16064;DHT22;8136;53.172;8.256;2022-08-03T14:55:00;38.40;78.20
16064;DHT22;8136;53.172;8.256;2022-08-03T14:57:27;38.20;74.90
16064;DHT22;8136;53.172;8.256;2022-08-03T14:59:56;37.60;75.70
16064;DHT22;8136;53.172;8.256;2022-08-03T15:02:26;37.20;75.40
16064;DHT22;8136;53.172;8.256;2022-08-03T15:04:54;37.20;77.00
16064;DHT22;8136;53.172;8.256;2022-08-03T15:07:21;37.00;78.40
16064;DHT22;8136;53.172;8.256;2022-08-03T15:09:48;37.10;81.50
16064;DHT22;8136;53.172;8.256;2022-08-03T15:12:17;37.60;79.10
16064;DHT22;8136;53.172;8.256;2022-08-03T15:14:43;37.90;76.00
16064;DHT22;8136;53.172;8.256;2022-08-03T15:17:10;38.20;76.30
16064;DHT22;8136;53.172;8.256;2022-08-03T15:19:39;38.40;74.80
16064;DHT22;8136;53.172;8.256;2022-08-03T15:22:11;38.40;76.90
16064;DHT22;8136;53.172;8.256;2022-08-03T15:24:39;38.40;77.60
16064;DHT22;8136;53.172;8.256;2022-08-03T15:27:09;38.40;76.20
16064;DHT22;8136;53.172;8.256;2022-08-03T15:29:43;38.20;78.70
16064;DHT22;8136;53.172;8.256;2022-08-03T15:32:15;38.10;79.70
16064;DHT22;8136;53.172;8.256;2022-08-03T15:34:48;38.20;76.60
16064;DHT22;8136;53.172;8.256;2022-08-03T15:37:16;38.50;80.00
16064;DHT22;8136;53.172;8.256;2022-08-03T15:39:43;38.90;76.70
16064;DHT22;8136;53.172;8.256;2022-08-03T15:42:10;38.90;75.50
16064;DHT22;8136;53.172;8.256;2022-08-03T15:44:37;38.70;78.00
16064;DHT22;8136;53.172;8.256;2022-08-03T15:47:05;39.00;76.10
16064;DHT22;8136;53.172;8.256;2022-08-03T15:49:32;39.20;74.90
16064;DHT22;8136;53.172;8.256;2022-08-03T15:52:00;39.50;74.70
16064;DHT22;8136;53.172;8.256;2022-08-03T15:54:29;39.80;75.10
16064;DHT22;8136;53.172;8.256;2022-08-03T15:57:04;40.00;72.90
16064;DHT22;8136;53.172;8.256;2022-08-03T15:59:31;40.00;74.50
16064;DHT22;8136;53.172;8.256;2022-08-03T16:02:01;40.60;72.40
16064;DHT22;8136;53.172;8.256;2022-08-03T16:04:29;41.50;71.90
16064;DHT22;8136;53.172;8.256;2022-08-03T16:06:56;42.00;72.50
16064;DHT22;8136;53.172;8.256;2022-08-03T16:09:25;41.60;72.20